Time;durP1;ratioP1;P1;durP2;ratioP2;P2;SDS_P1;SDS_P2;PMS_P1;PMS_P2;Temp;Humidity;BMP_temperature;BMP_pressure;BME280_temperature;BME280_humidity;BME280_pressure;Samples;Min_cycle;Max_cycle;Signal;HPM_P1;HPM_P2
2022/01/29 00:02:42;;;;;;;16.87;6.60;;;;;;;-0.49;100.00;99524.28;2158681;82;21005;-85
2022/01/29 00:05:43;;;;;;;14.20;6.10;;;;;;;-0.50;100.00;99530.81;2158501;82;20978;-84
2022/01/29 00:08:44;;;;;;;11.48;4.85;;;;;;;-0.53;100.00;99540.84;2158805;82;21061;-84
2022/01/29 00:11:45;;;;;;;10.38;4.67;;;;;;;-0.54;100.00;99540.47;2151538;82;20942;-85
2022/01/29 00:14:46;;;;;;;8.75;4.95;;;;;;;-0.51;100.00;99545.42;2126938;82;21041;-84
2022/01/29 00:17:47;;;;;;;10.98;4.92;;;;;;;-0.48;100.00;99552.95;2158787;82;21025;-84
2022/01/29 00:20:47;;;;;;;11.03;5.65;;;;;;;-0.45;100.00;99549.40;2158994;82;22138;-84
2022/01/29 00:23:48;;;;;;;6.83;4.37;;;;;;;-0.44;100.00;99553.16;2158992;82;21508;-84
2022/01/29 00:26:49;;;;;;;10.35;4.00;;;;;;;-0.41;100.00;99561.98;2159033;82;21059;-84
2022/01/29 00:29:50;;;;;;;6.67;3.22;;;;;;;-0.43;100.00;99555.28;2151141;82;21040;-85
2022/01/29 00:32:51;;;;;;;4.33;3.20;;;;;;;-0.47;100.00;99561.04;2122245;84;20978;-85
2022/01/29 00:35:52;;;;;;;5.62;3.58;;;;;;;-0.52;100.00;99566.93;2122681;84;21088;-85
2022/01/29 00:38:52;;;;;;;9.93;4.35;;;;;;;-0.58;100.00;99557.81;2179528;81;20951;-84
2022/01/29 00:41:53;;;;;;;8.05;4.05;;;;;;;-0.62;100.00;99560.20;2159252;82;21065;-84
2022/01/29 00:44:54;;;;;;;11.28;4.60;;;;;;;-0.66;100.00;99565.14;2184559;81;21113;-84
2022/01/29 00:47:55;;;;;;;7.12;3.37;;;;;;;-0.71;100.00;99567.62;2163712;78;21018;-85
2022/01/29 00:50:57;;;;;;;9.55;4.03;;;;;;;-0.77;100.00;99570.53;2163215;81;20993;-84
2022/01/29 00:53:57;;;;;;;6.83;3.90;;;;;;;-0.81;100.00;99571.17;2158398;82;21698;-84
2022/01/29 00:56:58;;;;;;;9.20;3.90;;;;;;;-0.83;100.00;99569.58;2159261;82;21021;-84
2022/01/29 00:59:59;;;;;;;10.25;4.10;;;;;;;-0.88;100.00;99572.43;2159449;82;20954;-85
2022/01/29 01:03:00;;;;;;;8.93;4.15;;;;;;;-0.92;100.00;99578.64;2131313;82;21104;-84
2022/01/29 01:06:01;;;;;;;10.70;4.70;;;;;;;-0.95;100.00;99569.83;2121986;82;21029;-85
2022/01/29 01:09:02;;;;;;;9.88;3.72;;;;;;;-0.99;100.00;99560.64;2151556;81;21088;-84
2022/01/29 01:12:02;;;;;;;8.45;3.60;;;;;;;-1.02;100.00;99555.65;2158868;82;21001;-85
2022/01/29 01:15:03;;;;;;;6.90;3.77;;;;;;;-1.04;100.00;99561.34;2168034;82;21564;-84
2022/01/29 01:18:04;;;;;;;9.38;3.37;;;;;;;-1.06;100.00;99556.29;2172272;82;21007;-84
2022/01/29 01:21:05;;;;;;;7.28;3.02;;;;;;;-1.05;100.00;99554.55;2172234;82;21084;-84
2022/01/29 01:24:05;;;;;;;7.35;3.42;;;;;;;-1.08;100.00;99556.02;2172406;82;20973;-84
2022/01/29 01:27:06;;;;;;;9.15;3.58;;;;;;;-1.11;100.00;99549.28;2172239;82;21088;-85
2022/01/29 01:30:07;;;;;;;4.62;2.85;;;;;;;-1.12;100.00;99537.80;2161305;82;21513;-84
2022/01/29 01:33:08;;;;;;;6.50;3.50;;;;;;;-1.11;100.00;99545.42;2158748;80;21044;-83
2022/01/29 01:36:09;;;;;;;6.45;3.72;;;;;;;-1.13;100.00;99538.72;2199344;80;20942;-84
2022/01/29 01:39:12;;;;;;;5.50;2.92;;;;;;;-1.17;100.00;99542.75;2174857;82;21085;-84
2022/01/29 01:42:12;;;;;;;5.55;3.05;;;;;;;-1.17;100.00;99554.32;2175839;82;21067;-85
2022/01/29 01:45:13;;;;;;;7.47;3.25;;;;;;;-1.22;100.00;99553.73;2157646;82;21037;-84
2022/01/29 01:48:14;;;;;;;5.50;3.05;;;;;;;-1.23;100.00;99550.80;2135402;83;20997;-84
2022/01/29 01:51:15;;;;;;;9.53;3.27;;;;;;;-1.24;100.00;99548.31;2135093;82;21036;-84
2022/01/29 01:54:19;;;;;;;7.85;3.42;;;;;;;-1.27;100.00;99550.61;2134728;83;21032;-85
2022/01/29 01:57:19;;;;;;;4.92;3.15;;;;;;;-1.27;100.00;99550.61;2135345;82;20974;-84
2022/01/29 02:00:20;;;;;;;8.43;4.17;;;;;;;-1.29;100.00;99552.87;2171986;82;21544;-84
2022/01/29 02:03:21;;;;;;;7.05;3.87;;;;;;;-1.31;100.00;99556.81;2172138;82;20961;-84
2022/01/29 02:06:22;;;;;;;8.28;3.75;;;;;;;-1.30;100.00;99553.78;2184864;80;21032;-84
2022/01/29 02:09:24;;;;;;;7.70;3.35;;;;;;;-1.33;100.00;99559.92;2210315;80;21100;-84
2022/01/29 02:12:28;;;;;;;9.43;3.90;;;;;;;-1.34;100.00;99560.02;2203411;80;21011;-84
2022/01/29 02:15:28;;;;;;;7.78;4.08;;;;;;;-1.37;100.00;99561.02;2119597;83;21086;-84
2022/01/29 02:18:29;;;;;;;8.43;3.92;;;;;;;-1.38;100.00;99562.36;2116300;83;21065;-84
2022/01/29 02:21:30;;;;;;;11.28;5.40;;;;;;;-1.38;100.00;99561.08;2118511;83;21054;-84
2022/01/29 02:24:30;;;;;;;9.18;5.05;;;;;;;-1.39;100.00;99555.57;2175200;81;20998;-85
2022/01/29 02:27:31;;;;;;;13.70;6.00;;;;;;;-1.40;100.00;99554.74;2162536;81;20954;-85
2022/01/29 02:30:33;;;;;;;9.60;4.87;;;;;;;-1.42;100.00;99554.00;2152718;82;21025;-83
2022/01/29 02:33:34;;;;;;;9.78;5.42;;;;;;;-1.44;100.00;99545.56;2152610;83;21540;-83
2022/01/29 02:36:35;;;;;;;13.13;4.78;;;;;;;-1.47;100.00;99553.41;2152978;81;20978;-83
2022/01/29 02:39:36;;;;;;;11.88;4.83;;;;;;;-1.48;100.00;99546.63;2152597;82;21021;-83
2022/01/29 02:42:37;;;;;;;13.55;5.17;;;;;;;-1.51;100.00;99544.23;2151707;82;21626;-83
2022/01/29 02:45:37;;;;;;;9.25;4.33;;;;;;;-1.56;100.00;99544.46;2152653;82;20974;-83
2022/01/29 02:48:38;;;;;;;18.32;7.10;;;;;;;-1.58;100.00;99554.45;2152349;83;21090;-83
2022/01/29 02:51:39;;;;;;;29.05;9.90;;;;;;;-1.62;100.00;99556.83;2152784;82;21593;-82
2022/01/29 02:54:40;;;;;;;25.40;8.95;;;;;;;-1.67;100.00;99550.64;2124715;83;21128;-82
2022/01/29 02:57:41;;;;;;;24.82;9.38;;;;;;;-1.68;100.00;99548.98;2116894;83;21602;-82
2022/01/29 03:00:41;;;;;;;21.55;7.75;;;;;;;-1.70;100.00;99546.96;2116355;84;20942;-83
2022/01/29 03:03:42;;;;;;;19.87;7.33;;;;;;;-1.68;100.00;99549.44;2116544;83;21097;-83
2022/01/29 03:06:43;;;;;;;29.72;11.68;;;;;;;-1.70;100.00;99537.97;2148203;81;21071;-83
2022/01/29 03:09:44;;;;;;;30.05;8.88;;;;;;;-1.70;100.00;99539.72;2153960;80;21006;-83
2022/01/29 03:12:44;;;;;;;24.67;8.95;;;;;;;-1.73;100.00;99544.11;2155135;81;20938;-83
2022/01/29 03:15:45;;;;;;;18.95;7.67;;;;;;;-1.74;100.00;99537.75;2186133;80;21501;-83
2022/01/29 03:18:46;;;;;;;14.35;6.33;;;;;;;-1.76;100.00;99539.12;2155861;83;20978;-84
2022/01/29 03:21:46;;;;;;;18.02;7.75;;;;;;;-1.76;100.00;99536.55;2155024;82;21496;-83
2022/01/29 03:24:47;;;;;;;20.27;7.33;;;;;;;-1.78;100.00;99532.41;2155950;83;20966;-84
2022/01/29 03:27:48;;;;;;;17.62;7.95;;;;;;;-1.81;100.00;99528.28;2155915;83;21537;-83
2022/01/29 03:30:49;;;;;;;13.22;6.35;;;;;;;-1.83;100.00;99521.13;2155272;83;20971;-83
2022/01/29 03:33:50;;;;;;;18.57;8.20;;;;;;;-1.83;100.00;99516.41;2155624;83;20974;-83
2022/01/29 03:36:54;;;;;;;16.70;7.65;;;;;;;-1.89;100.00;99502.19;2139223;83;20995;-83
2022/01/29 03:39:58;;;;;;;14.75;6.50;;;;;;;-1.89;100.00;99508.61;2119369;84;21061;-83
2022/01/29 03:43:01;;;;;;;10.05;5.35;;;;;;;-1.89;100.00;99516.30;2119537;84;21116;-83
2022/01/29 03:45:58;;;;;;;9.60;5.65;;;;;;;-1.91;100.00;99512.17;2119334;83;21574;-84
2022/01/29 03:48:59;;;;;;;18.95;7.17;;;;;;;-1.91;100.00;99507.03;2129034;83;21016;-84
2022/01/29 03:52:00;;;;;;;13.15;6.17;;;;;;;-1.94;100.00;99497.73;2155774;83;21010;-83
2022/01/29 03:55:01;;;;;;;15.35;6.33;;;;;;;-1.96;100.00;99507.27;2134304;83;21498;-84
2022/01/29 03:58:02;;;;;;;13.28;5.90;;;;;;;-1.98;100.00;99508.27;2155597;83;20990;-84
2022/01/29 04:01:03;;;;;;;13.13;5.45;;;;;;;-2.00;100.00;99503.22;2133269;83;20994;-84
2022/01/29 04:04:03;;;;;;;12.15;6.05;;;;;;;-2.01;100.00;99511.83;2134300;82;20919;-84
2022/01/29 04:07:10;;;;;;;9.58;5.22;;;;;;;-2.03;100.00;99505.47;2173290;81;21144;-84
2022/01/29 04:10:07;;;;;;;10.95;5.25;;;;;;;-2.04;100.00;99506.38;2154949;82;21489;-83
2022/01/29 04:13:10;;;;;;;15.35;6.25;;;;;;;-2.08;100.00;99494.64;2155844;82;21053;-82
2022/01/29 04:16:10;;;;;;;12.68;5.62;;;;;;;-2.08;100.00;99498.94;2153307;82;21053;-82
2022/01/29 04:19:11;;;;;;;12.70;5.85;;;;;;;-2.10;100.00;99490.50;2120683;83;21006;-82
2022/01/29 04:22:12;;;;;;;10.23;5.22;;;;;;;-2.13;100.00;99487.62;2149699;82;21097;-82
2022/01/29 04:25:12;;;;;;;13.28;6.15;;;;;;;-2.13;100.00;99481.66;2141884;82;21021;-83
2022/01/29 04:28:14;;;;;;;13.88;6.17;;;;;;;-2.16;100.00;99494.20;2157462;82;20986;-83
2022/01/29 04:31:18;;;;;;;17.42;7.55;;;;;;;-2.17;100.00;99487.42;2121425;83;21115;-84
2022/01/29 04:34:18;;;;;;;17.45;7.60;;;;;;;-2.16;100.00;99494.20;2120262;84;21090;-84
2022/01/29 04:37:19;;;;;;;16.12;7.87;;;;;;;-2.16;100.00;99493.38;2165327;81;20971;-84
2022/01/29 04:40:20;;;;;;;15.75;7.58;;;;;;;-2.16;100.00;99497.23;2196892;81;20978;-84
2022/01/29 04:43:20;;;;;;;13.13;6.85;;;;;;;-2.16;100.00;99501.08;2189625;80;21545;-84
2022/01/29 04:46:21;;;;;;;21.85;8.20;;;;;;;-2.17;100.00;99498.97;2159479;82;20947;-84
2022/01/29 04:49:22;;;;;;;12.65;6.58;;;;;;;-2.19;100.00;99490.98;2159538;82;20997;-84
2022/01/29 04:52:23;;;;;;;15.98;7.42;;;;;;;-2.21;100.00;99482.05;2158778;81;20994;-84
2022/01/29 04:55:23;;;;;;;11.70;5.92;;;;;;;-2.21;100.00;99487.64;2159682;81;22072;-84
2022/01/29 04:58:24;;;;;;;15.15;7.12;;;;;;;-2.26;100.00;99477.64;2158923;82;21001;-83
2022/01/29 05:01:25;;;;;;;12.28;5.75;;;;;;;-2.27;100.00;99472.14;2159328;82;21434;-83
2022/01/29 05:04:26;;;;;;;9.50;5.72;;;;;;;-2.27;100.00;99475.98;2159378;82;21017;-83
2022/01/29 05:07:27;;;;;;;16.25;6.62;;;;;;;-2.31;100.00;99474.02;2156837;81;20922;-83
2022/01/29 05:10:28;;;;;;;12.50;6.97;;;;;;;-2.31;100.00;99474.02;2129072;82;21010;-83
2022/01/29 05:13:30;;;;;;;13.35;6.53;;;;;;;-2.32;100.00;99468.97;2159146;82;20973;-83
2022/01/29 05:29:32;;;;;;;9.50;6.10;;;;;;;-2.39;100.00;99458.65;2131950;82;20993;-82
2022/01/29 05:32:33;;;;;;;12.70;6.00;;;;;;;-2.41;100.00;99462.58;2159380;82;21097;-83
2022/01/29 05:35:33;;;;;;;15.38;5.62;;;;;;;-2.42;100.00;99460.92;2159141;82;21031;-84
2022/01/29 05:38:34;;;;;;;14.20;6.08;;;;;;;-2.44;100.00;99460.64;2182663;81;21030;-84
2022/01/29 05:41:35;;;;;;;12.75;6.20;;;;;;;-2.43;100.00;99466.97;2159571;82;21517;-84
2022/01/29 05:44:36;;;;;;;13.83;5.25;;;;;;;-2.42;100.00;99464.77;2159386;81;21081;-84
2022/01/29 05:47:37;;;;;;;12.00;5.78;;;;;;;-2.39;100.00;99459.93;2159647;81;21449;-83
2022/01/29 05:50:38;;;;;;;13.25;5.87;;;;;;;-2.39;100.00;99459.47;2159391;82;21373;-84
2022/01/29 05:53:39;;;;;;;11.83;5.42;;;;;;;-2.40;100.00;99456.99;2158439;82;20989;-83
2022/01/29 05:56:39;;;;;;;13.28;6.70;;;;;;;-2.41;100.00;99456.62;2159694;82;20959;-83
2022/01/29 05:59:40;;;;;;;10.88;5.37;;;;;;;-2.42;100.00;99456.25;2159281;82;21008;-83
2022/01/29 06:02:41;;;;;;;16.32;7.25;;;;;;;-2.43;100.00;99463.12;2126528;82;20962;-84
2022/01/29 06:05:42;;;;;;;23.50;7.60;;;;;;;-2.42;100.00;99458.82;2124765;82;21050;-84
2022/01/29 06:08:43;;;;;;;23.77;7.80;;;;;;;-2.41;100.00;99454.06;2187133;81;21501;-85
2022/01/29 06:11:43;;;;;;;29.07;8.68;;;;;;;-2.41;100.00;99453.60;2197164;80;21010;-85
2022/01/29 06:14:44;;;;;;;28.45;10.40;;;;;;;-2.42;100.00;99443.42;2197468;80;21045;-84
2022/01/29 06:17:45;;;;;;;28.35;10.63;;;;;;;-2.43;100.00;99443.06;2196391;80;20976;-84
2022/01/29 06:20:46;;;;;;;29.70;9.53;;;;;;;-2.43;100.00;99436.64;2168811;81;21526;-83
2022/01/29 06:23:46;;;;;;;25.62;9.75;;;;;;;-2.42;100.00;99431.89;2167521;81;20988;-84
2022/01/29 06:26:47;;;;;;;36.55;10.18;;;;;;;-2.40;100.00;99426.22;2158815;81;21037;-83
2022/01/29 06:29:48;;;;;;;43.92;12.55;;;;;;;-2.40;100.00;99418.06;2196286;81;21540;-83
2022/01/29 06:32:48;;;;;;;38.13;11.45;;;;;;;-2.42;100.00;99424.19;2184566;81;21031;-83
2022/01/29 06:35:49;;;;;;;27.45;9.53;;;;;;;-2.38;100.00;99423.97;2154657;81;21536;-84
2022/01/29 06:38:50;;;;;;;26.17;7.60;;;;;;;-2.34;100.00;99416.92;2149038;81;21037;-83
2022/01/29 06:41:51;;;;;;;29.65;10.60;;;;;;;-2.32;100.00;99423.62;2122432;83;20943;-87
2022/01/29 06:44:52;;;;;;;32.17;9.85;;;;;;;-2.30;100.00;99420.97;2124312;82;20989;-87
2022/01/29 06:47:53;;;;;;;22.95;8.15;;;;;;;-2.25;100.00;99419.45;2122511;82;21557;-85
2022/01/29 06:50:54;;;;;;;21.62;8.93;;;;;;;-2.21;100.00;99414.06;2122417;82;21037;-88
2022/01/29 06:53:54;;;;;;;18.90;8.68;;;;;;;-2.19;100.00;99414.84;2130698;82;21581;-88
2022/01/29 06:56:55;;;;;;;24.50;10.58;;;;;;;-2.14;100.00;99414.12;2123090;84;20970;-86
2022/01/29 06:59:56;;;;;;;24.43;9.15;;;;;;;-2.13;100.00;99418.33;2124636;82;21015;-83
2022/01/29 07:02:57;;;;;;;28.00;9.70;;;;;;;-2.10;100.00;99425.89;2162530;82;20903;-85
2022/01/29 07:05:58;;;;;;;19.65;9.08;;;;;;;-2.05;100.00;99425.62;2137331;81;20919;-85
2022/01/29 07:08:58;;;;;;;22.10;8.50;;;;;;;-2.01;100.00;99413.02;2124634;84;20990;-89
2022/01/29 07:12:08;;;;;;;24.57;9.40;;;;;;;-1.98;100.00;99417.15;2142848;82;21061;-87
2022/01/29 07:15:02;;;;;;;25.70;10.80;;;;;;;-1.90;100.00;99416.28;2156536;82;21110;-86
2022/01/29 07:18:03;;;;;;;27.17;11.20;;;;;;;-1.85;100.00;99414.27;2158516;82;20985;-87
2022/01/29 07:21:03;;;;;;;28.62;10.08;;;;;;;-1.79;100.00;99417.33;2159238;82;22150;-86
2022/01/29 07:24:04;;;;;;;26.20;9.90;;;;;;;-1.75;100.00;99408.99;2159607;81;21028;-86
2022/01/29 07:27:05;;;;;;;26.95;9.63;;;;;;;-1.67;100.00;99407.29;2182547;81;21031;-84
2022/01/29 07:30:06;;;;;;;26.57;9.40;;;;;;;-1.56;100.00;99407.05;2153328;81;21060;-84
2022/01/29 07:33:07;;;;;;;30.45;10.70;;;;;;;-1.44;100.00;99401.23;2177120;81;20937;-84
2022/01/29 07:36:08;;;;;;;23.02;8.53;;;;;;;-1.28;100.00;99406.34;2157834;82;20947;-84
2022/01/29 07:39:08;;;;;;;35.40;9.83;;;;;;;-1.10;100.00;99398.45;2159578;82;20966;-84
2022/01/29 07:42:09;;;;;;;24.43;9.33;;;;;;;-0.94;100.00;99381.22;2159437;82;20994;-85
2022/01/29 07:45:10;;;;;;;32.75;9.10;;;;;;;-0.81;100.00;99375.73;2160082;82;20985;-85
2022/01/29 07:48:11;;;;;;;30.65;10.55;;;;;;;-0.69;100.00;99380.59;2159621;82;20966;-84
2022/01/29 07:51:12;;;;;;;28.95;9.63;;;;;;;-0.53;100.00;99376.64;2159537;82;21365;-84
2022/01/29 07:54:13;;;;;;;29.18;10.30;;;;;;;-0.36;100.00;99363.58;2159239;82;20997;-84
2022/01/29 07:57:13;;;;;;;31.52;10.75;;;;;;;-0.23;100.00;99359.77;2159746;82;21544;-84
2022/01/29 08:00:14;;;;;;;37.60;11.28;;;;;;;-0.12;100.00;99354.30;2159852;81;21001;-84
2022/01/29 08:03:15;;;;;;;35.55;10.90;;;;;;;-0.04;100.00;99349.50;2197423;81;21449;-84
2022/01/29 08:06:16;;;;;;;31.48;10.85;;;;;;;0.06;100.00;99343.30;2198564;81;20958;-81
2022/01/29 08:09:17;;;;;;;24.27;9.48;;;;;;;0.15;100.00;99336.74;2197584;81;20915;-84
2022/01/29 08:12:18;;;;;;;33.80;11.63;;;;;;;0.18;100.00;99342.97;2193064;81;20986;-83
2022/01/29 08:15:19;;;;;;;36.08;10.43;;;;;;;0.27;100.00;99336.80;2160046;81;21069;-85
2022/01/29 08:18:19;;;;;;;38.30;11.70;;;;;;;0.39;100.00;99335.16;2177941;81;20959;-84
2022/01/29 08:21:20;;;;;;;33.63;11.40;;;;;;;0.51;100.00;99332.23;2197574;80;21509;-84
2022/01/29 08:24:21;;;;;;;29.65;9.65;;;;;;;0.63;100.00;99323.69;2197503;81;20973;-85
2022/01/29 08:27:22;;;;;;;24.10;9.55;;;;;;;0.73;100.00;99312.30;2197365;80;21009;-84
2022/01/29 08:30:23;;;;;;;25.05;8.55;;;;;;;0.82;100.00;99321.99;2196981;81;21065;-81
2022/01/29 08:33:24;;;;;;;25.00;9.80;;;;;;;0.82;100.00;99311.25;2197762;80;21045;-86
2022/01/29 08:36:24;;;;;;;24.05;9.95;;;;;;;0.90;100.00;99311.17;2169704;81;21013;-83
2022/01/29 08:39:25;;;;;;;24.82;9.28;;;;;;;0.95;100.00;99310.41;2197051;81;20927;-81
2022/01/29 08:42:26;;;;;;;30.17;10.20;;;;;;;0.92;100.00;99298.55;2197362;80;21025;-84
2022/01/29 08:45:27;;;;;;;28.15;10.35;;;;;;;0.99;100.00;99304.92;2197403;81;20947;-84
2022/01/29 08:48:28;;;;;;;54.77;29.77;;;;;;;1.04;100.00;99301.58;2178562;81;20993;-83
2022/01/29 08:51:29;;;;;;;37.48;13.70;;;;;;;1.11;100.00;99303.28;2159155;82;21006;-84
2022/01/29 08:54:29;;;;;;;27.00;10.82;;;;;;;1.20;100.00;99287.63;2159649;82;21477;-84
2022/01/29 08:57:30;;;;;;;33.23;12.07;;;;;;;1.25;100.00;99283.78;2159356;82;21009;-84
2022/01/29 09:00:31;;;;;;;27.07;10.63;;;;;;;1.34;100.00;99283.61;2165536;81;21453;-84
2022/01/29 09:03:32;;;;;;;29.18;10.50;;;;;;;1.42;100.00;99283.44;2196973;81;20969;-84
2022/01/29 09:06:33;;;;;;;22.13;9.83;;;;;;;1.49;100.00;99277.38;2197270;81;21113;-84
2022/01/29 09:09:34;;;;;;;33.65;12.73;;;;;;;1.58;100.00;99275.91;2197177;81;21595;-84
2022/01/29 09:12:34;;;;;;;30.17;11.00;;;;;;;1.66;100.00;99274.91;2197185;81;21050;-84
2022/01/29 09:15:35;;;;;;;25.65;9.75;;;;;;;1.77;100.00;99272.84;2197266;80;21038;-84
2022/01/29 09:18:36;;;;;;;46.25;25.75;;;;;;;1.92;100.00;99269.98;2177610;81;21005;-84
2022/01/29 09:21:37;;;;;;;37.05;15.03;;;;;;;2.15;100.00;99276.51;2158783;82;21029;-84
2022/01/29 09:24:38;;;;;;;27.10;10.82;;;;;;;2.35;100.00;99251.77;2159893;82;21073;-85
2022/01/29 09:27:38;;;;;;;25.20;9.95;;;;;;;2.52;100.00;99254.75;2159879;82;20997;-85
2022/01/29 09:30:39;;;;;;;28.40;10.80;;;;;;;2.68;100.00;99246.66;2159615;82;21005;-82
2022/01/29 09:33:40;;;;;;;27.17;10.20;;;;;;;2.79;100.00;99234.20;2159462;82;20966;-85
2022/01/29 09:36:41;;;;;;;28.75;9.88;;;;;;;2.93;100.00;99241.73;2159800;82;21002;-84
2022/01/29 09:39:46;;;;;;;58.28;30.85;;;;;;;3.07;100.00;99235.01;2161627;81;20985;-84
2022/01/29 09:42:46;;;;;;;65.62;44.70;;;;;;;3.23;100.00;99229.94;2162384;82;21002;-82
2022/01/29 09:45:49;;;;;;;39.25;19.95;;;;;;;3.39;100.00;99228.63;2162718;82;20974;-85
2022/01/29 09:48:50;;;;;;;37.03;14.28;;;;;;;3.55;100.00;99235.97;2159724;82;21046;-84
2022/01/29 09:51:50;;;;;;;30.05;11.30;;;;;;;3.73;100.00;99227.20;2176906;81;21013;-84
2022/01/29 09:54:51;;;;;;;25.57;10.45;;;;;;;3.81;100.00;99229.17;2196973;80;20953;-84
2022/01/29 09:57:52;;;;;;;22.52;9.50;;;;;;;3.90;100.00;99227.14;2174555;81;20946;-83
2022/01/29 10:00:53;;;;;;;25.17;10.98;;;;;;;3.98;100.00;99228.64;2166659;81;20943;-85
2022/01/29 10:03:54;;;;;;;25.05;11.50;;;;;;;4.00;100.00;99221.55;2197234;81;21493;-86
2022/01/29 10:06:55;;;;;;;28.83;11.22;;;;;;;3.91;100.00;99204.16;2196873;81;20970;-86
2022/01/29 10:09:56;;;;;;;28.02;11.33;;;;;;;3.88;100.00;99200.54;2196728;81;20975;-85
2022/01/29 10:12:56;;;;;;;27.52;11.63;;;;;;;3.89;100.00;99185.34;2197244;81;21120;-83
2022/01/29 10:15:57;;;;;;;23.95;12.25;;;;;;;3.94;100.00;99188.39;2196865;80;21482;-84
2022/01/29 10:18:58;;;;;;;30.27;13.83;;;;;;;3.96;100.00;99186.48;2197069;81;21497;-85
2022/01/29 10:21:59;;;;;;;31.00;14.47;;;;;;;3.93;100.00;99168.14;2196763;81;21029;-84
2022/01/29 10:25:00;;;;;;;29.45;15.10;;;;;;;4.03;100.00;99175.16;2196319;81;22101;-85
2022/01/29 10:28:00;;;;;;;31.97;15.40;;;;;;;4.05;100.00;99171.95;2196649;80;21013;-81
2022/01/29 10:31:01;;;;;;;38.65;18.07;;;;;;;4.10;100.00;99163.30;2183781;81;21022;-84
2022/01/29 10:34:02;;;;;;;40.50;18.05;;;;;;;4.11;100.00;99161.88;2122364;84;21044;-85
2022/01/29 10:37:03;;;;;;;35.33;18.00;;;;;;;4.13;100.00;99154.00;2122135;84;21500;-81
2022/01/29 10:40:03;;;;;;;30.40;15.03;;;;;;;4.12;100.00;99162.73;2126291;81;21037;-82
2022/01/29 10:43:04;;;;;;;37.05;15.90;;;;;;;4.06;100.00;99158.05;2196522;81;21065;-83
2022/01/29 10:46:05;;;;;;;38.83;16.12;;;;;;;3.97;100.00;99146.67;2196219;81;21002;-82
2022/01/29 10:49:06;;;;;;;29.92;12.73;;;;;;;3.94;100.00;99130.91;2196217;81;21024;-82
2022/01/29 10:52:07;;;;;;;30.92;13.13;;;;;;;3.95;100.00;99126.55;2173538;81;20986;-82
2022/01/29 10:55:08;;;;;;;24.87;12.65;;;;;;;3.96;100.00;99108.28;2158776;82;20982;-86
2022/01/29 10:58:08;;;;;;;33.70;14.28;;;;;;;4.01;100.00;99105.29;2158707;82;20997;-81
2022/01/29 11:01:09;;;;;;;31.25;14.25;;;;;;;4.06;100.00;99096.67;2158781;82;21001;-84
2022/01/29 11:04:10;;;;;;;41.98;18.67;;;;;;;4.11;100.00;99095.79;2158988;82;21072;-81
2022/01/29 11:07:16;;;;;;;36.20;15.23;;;;;;;4.14;100.00;99080.00;2158592;82;20931;-82
2022/01/29 11:10:14;;;;;;;36.93;17.73;;;;;;;4.18;100.00;99071.48;2160871;81;21098;-83
2022/01/29 11:13:15;;;;;;;34.53;13.00;;;;;;;4.29;100.00;99062.30;2196601;81;21001;-82
2022/01/29 11:16:15;;;;;;;28.25;12.82;;;;;;;4.31;100.00;99044.88;2200063;80;20970;-82
2022/01/29 11:19:16;;;;;;;24.98;13.00;;;;;;;4.31;100.00;99046.64;2210386;80;21049;-82
2022/01/29 11:22:17;;;;;;;31.45;12.75;;;;;;;4.28;100.00;99032.97;2187523;80;21538;-84
2022/01/29 11:25:18;;;;;;;26.52;12.58;;;;;;;4.25;100.00;99020.77;2172148;82;21001;-82
2022/01/29 11:28:19;;;;;;;26.23;11.50;;;;;;;4.26;100.00;99021.10;2172233;82;21489;-83
2022/01/29 11:31:20;;;;;;;25.17;11.73;;;;;;;4.25;100.00;99018.98;2172293;80;20981;-82
2022/01/29 11:34:21;;;;;;;30.10;11.93;;;;;;;4.25;100.00;98996.95;2186201;80;20927;-82
2022/01/29 11:37:22;;;;;;;26.07;10.55;;;;;;;4.26;100.00;98991.30;2209946;80;21040;-81
2022/01/29 11:40:23;;;;;;;24.27;11.00;;;;;;;4.22;100.00;98975.20;2179639;81;20953;-81
2022/01/29 11:43:24;;;;;;;19.92;11.03;;;;;;;4.28;100.00;98973.34;2172034;82;21025;-82
2022/01/29 11:46:32;;;;;;;25.37;12.45;;;;;;;4.39;100.00;98977.63;2172329;82;21036;-84
2022/01/29 11:49:34;;;;;;;22.80;12.43;;;;;;;4.49;100.00;98973.75;2172438;82;21096;-83
2022/01/29 11:52:34;;;;;;;31.02;13.40;;;;;;;4.48;100.00;98963.86;2171965;82;21089;-84
2022/01/29 11:55:35;;;;;;;22.07;12.00;;;;;;;4.49;100.00;98969.86;2202223;81;20979;-82
2022/01/29 11:58:36;;;;;;;32.33;12.58;;;;;;;4.50;100.00;98967.13;2210402;80;21494;-84
2022/01/29 12:01:37;;;;;;;27.45;10.80;;;;;;;4.45;100.00;98961.52;2210085;80;20978;-83
2022/01/29 12:04:38;;;;;;;26.97;11.30;;;;;;;4.46;100.00;98963.15;2210364;81;21013;-83
2022/01/29 12:07:40;;;;;;;26.35;12.90;;;;;;;4.50;100.00;98941.67;2210159;81;21016;-81
2022/01/29 12:10:45;;;;;;;26.70;11.95;;;;;;;4.53;100.00;98932.32;2210115;81;21024;-85
2022/01/29 12:13:43;;;;;;;26.87;10.98;;;;;;;4.55;100.00;98931.22;2209843;80;21018;-81
2022/01/29 12:16:44;;;;;;;31.33;12.53;;;;;;;4.58;100.00;98918.95;2205626;80;21537;-82
2022/01/29 12:19:45;;;;;;;24.70;10.93;;;;;;;4.60;100.00;98914.45;2196490;81;20990;-82
2022/01/29 12:22:46;;;;;;;28.40;13.85;;;;;;;4.59;100.00;98903.73;2196811;81;21048;-80
2022/01/29 12:25:47;;;;;;;24.95;12.88;;;;;;;4.54;100.00;98904.95;2161286;81;21509;-80
2022/01/29 12:28:47;;;;;;;31.37;14.83;;;;;;;4.46;100.00;98900.92;2158637;82;20963;-84
2022/01/29 12:31:48;;;;;;;36.65;16.32;;;;;;;4.41;100.00;98888.86;2159071;82;21021;-83
2022/01/29 12:34:49;;;;;;;29.48;13.30;;;;;;;4.31;100.00;98885.44;2158815;82;20966;-82
2022/01/29 12:37:50;;;;;;;25.62;11.78;;;;;;;4.24;100.00;98879.16;2158716;82;21010;-82
2022/01/29 12:40:51;;;;;;;26.82;12.90;;;;;;;4.14;100.00;98869.26;2160110;82;21038;-82
2022/01/29 12:46:52;;;;;;;26.50;13.05;;;;;;;3.96;100.00;98856.14;2198400;81;20993;-83
2022/01/29 12:49:53;;;;;;;30.55;14.78;;;;;;;3.93;100.00;98848.61;2199671;81;20989;-81
2022/01/29 12:52:54;;;;;;;27.02;14.07;;;;;;;3.91;100.00;98853.94;2198168;81;20970;-82
2022/01/29 12:55:55;;;;;;;26.10;12.25;;;;;;;3.86;100.00;98844.95;2159953;81;20977;-81
2022/01/29 12:58:56;;;;;;;34.88;15.10;;;;;;;3.81;100.00;98850.98;2158841;82;21013;-83
2022/01/29 13:01:57;;;;;;;29.52;13.08;;;;;;;3.76;100.00;98836.34;2159509;82;21079;-82
2022/01/29 13:04:57;;;;;;;29.82;14.13;;;;;;;3.65;100.00;98835.95;2159485;82;20970;-83
2022/01/29 13:07:58;;;;;;;30.40;13.80;;;;;;;3.53;100.00;98829.25;2159417;82;20996;-82
2022/01/29 13:10:59;;;;;;;32.25;14.13;;;;;;;3.46;100.00;98834.13;2158860;81;20962;-83
2022/01/29 13:14:00;;;;;;;33.55;15.48;;;;;;;3.34;100.00;98829.53;2159042;81;21047;-82
2022/01/29 13:17:01;;;;;;;30.97;14.60;;;;;;;3.26;100.00;98819.01;2157925;80;21086;-82
2022/01/29 13:20:02;;;;;;;32.15;15.10;;;;;;;3.20;100.00;98823.88;2153655;83;21542;-82
2022/01/29 13:23:03;;;;;;;27.45;13.60;;;;;;;3.12;100.00;98817.61;2153609;81;21054;-82
2022/01/29 13:26:03;;;;;;;27.75;15.13;;;;;;;3.05;100.00;98800.95;2190958;81;20975;-83
2022/01/29 13:29:07;;;;;;;31.02;13.70;;;;;;;2.99;100.00;98795.00;2191267;81;21029;-83
2022/01/29 13:32:07;;;;;;;34.43;15.58;;;;;;;2.97;100.00;98785.26;2197030;81;21070;-82
2022/01/29 13:35:08;;;;;;;35.05;14.68;;;;;;;2.99;100.00;98773.48;2197212;81;21053;-83
2022/01/29 13:38:09;;;;;;;31.33;14.30;;;;;;;2.98;100.00;98769.27;2197017;81;21036;-83
2022/01/29 13:41:10;;;;;;;29.57;15.03;;;;;;;2.95;100.00;98755.30;2197063;81;21518;-83
2022/01/29 13:47:13;;;;;;;32.88;14.38;;;;;;;2.96;100.00;98746.12;2237598;79;21980;-84
2022/01/29 13:50:14;;;;;;;29.00;14.35;;;;;;;2.92;100.00;98735.67;2188551;81;21072;-84
2022/01/29 13:53:15;;;;;;;23.87;11.85;;;;;;;2.89;100.00;98728.66;2189888;80;21002;-84
2022/01/29 13:56:16;;;;;;;27.73;12.15;;;;;;;2.88;100.00;98706.33;2220929;80;21071;-81
2022/01/29 13:59:17;;;;;;;18.48;10.78;;;;;;;2.89;100.00;98704.09;2221402;80;21551;-81
2022/01/29 14:02:19;;;;;;;24.35;11.75;;;;;;;2.88;100.00;98686.94;2193436;80;20941;-84
2022/01/29 14:05:22;;;;;;;30.57;14.78;;;;;;;2.89;100.00;98682.92;2188924;80;21028;-82
2022/01/29 14:08:23;;;;;;;26.37;12.78;;;;;;;2.90;100.00;98681.97;2188873;81;21043;-82
2022/01/29 14:11:24;;;;;;;28.98;11.78;;;;;;;2.91;100.00;98679.72;2188749;81;21065;-81
2022/01/29 14:14:25;;;;;;;20.52;11.73;;;;;;;2.91;100.00;98677.61;2188772;81;20990;-81